sensor_id;sensor_type;location;lat;lon;timestamp;P1;durP1;ratioP1;P2;durP2;ratioP2
29120;SDS011;16191;49.548;8.658;2022-07-23T00:00:08;8.30;;;4.65;;
29120;SDS011;16191;49.548;8.658;2022-07-23T00:02:35;9.98;;;4.65;;
29120;SDS011;16191;49.548;8.658;2022-07-23T00:05:02;10.00;;;4.60;;
29120;SDS011;16191;49.548;8.658;2022-07-23T00:07:29;16.27;;;4.43;;
29120;SDS011;16191;49.548;8.658;2022-07-23T00:09:56;6.57;;;4.40;;
29120;SDS011;16191;49.548;8.658;2022-07-23T00:12:22;7.55;;;4.50;;
29120;SDS011;16191;49.548;8.658;2022-07-23T00:15:09;7.65;;;4.85;;
29120;SDS011;16191;49.548;8.658;2022-07-23T00:17:56;8.10;;;4.47;;
29120;SDS011;16191;49.548;8.658;2022-07-23T00:20:42;8.88;;;4.90;;
29120;SDS011;16191;49.548;8.658;2022-07-23T00:23:29;6.45;;;4.80;;
29120;SDS011;16191;49.548;8.658;2022-07-23T00:26:16;11.70;;;5.57;;
29120;SDS011;16191;49.548;8.658;2022-07-23T00:29:03;9.30;;;6.00;;
29120;SDS011;16191;49.548;8.658;2022-07-23T00:31:30;10.43;;;5.70;;
29120;SDS011;16191;49.548;8.658;2022-07-23T00:33:56;7.55;;;5.32;;
29120;SDS011;16191;49.548;8.658;2022-07-23T00:36:23;10.88;;;5.68;;
29120;SDS011;16191;49.548;8.658;2022-07-23T00:38:50;7.82;;;5.40;;
29120;SDS011;16191;49.548;8.658;2022-07-23T00:41:16;7.32;;;5.03;;
29120;SDS011;16191;49.548;8.658;2022-07-23T00:43:43;10.40;;;5.13;;
29120;SDS011;16191;49.548;8.658;2022-07-23T00:46:10;9.93;;;5.88;;
29120;SDS011;16191;49.548;8.658;2022-07-23T00:48:36;9.35;;;5.15;;
29120;SDS011;16191;49.548;8.658;2022-07-23T00:51:03;10.90;;;5.20;;
29120;SDS011;16191;49.548;8.658;2022-07-23T00:53:30;9.50;;;5.10;;
29120;SDS011;16191;49.548;8.658;2022-07-23T00:55:57;12.18;;;5.53;;
29120;SDS011;16191;49.548;8.658;2022-07-23T00:58:25;9.35;;;5.10;;
29120;SDS011;16191;49.548;8.658;2022-07-23T01:00:51;6.45;;;5.35;;
29120;SDS011;16191;49.548;8.658;2022-07-23T01:03:18;14.55;;;5.28;;
29120;SDS011;16191;49.548;8.658;2022-07-23T01:05:44;13.90;;;5.05;;
29120;SDS011;16191;49.548;8.658;2022-07-23T01:08:11;9.57;;;4.95;;
29120;SDS011;16191;49.548;8.658;2022-07-23T01:10:39;7.68;;;4.80;;
29120;SDS011;16191;49.548;8.658;2022-07-23T01:13:08;11.23;;;4.60;;
29120;SDS011;16191;49.548;8.658;2022-07-23T01:15:36;7.93;;;4.95;;
29120;SDS011;16191;49.548;8.658;2022-07-23T01:18:04;7.78;;;4.35;;
29120;SDS011;16191;49.548;8.658;2022-07-23T01:20:33;9.82;;;4.95;;
29120;SDS011;16191;49.548;8.658;2022-07-23T01:23:00;7.45;;;4.70;;
29120;SDS011;16191;49.548;8.658;2022-07-23T01:25:27;6.68;;;5.07;;
29120;SDS011;16191;49.548;8.658;2022-07-23T01:27:57;12.00;;;5.25;;
29120;SDS011;16191;49.548;8.658;2022-07-23T01:30:24;11.65;;;5.20;;
29120;SDS011;16191;49.548;8.658;2022-07-23T01:32:51;10.10;;;5.03;;
29120;SDS011;16191;49.548;8.658;2022-07-23T01:35:18;6.72;;;4.95;;
29120;SDS011;16191;49.548;8.658;2022-07-23T01:37:46;11.40;;;5.20;;
29120;SDS011;16191;49.548;8.658;2022-07-23T01:40:12;9.10;;;5.55;;
29120;SDS011;16191;49.548;8.658;2022-07-23T01:42:39;8.27;;;5.07;;
29120;SDS011;16191;49.548;8.658;2022-07-23T01:45:09;8.90;;;4.72;;
29120;SDS011;16191;49.548;8.658;2022-07-23T01:47:38;6.18;;;4.78;;
29120;SDS011;16191;49.548;8.658;2022-07-23T01:50:05;9.07;;;4.88;;
29120;SDS011;16191;49.548;8.658;2022-07-23T01:53:11;9.48;;;5.28;;
29120;SDS011;16191;49.548;8.658;2022-07-23T01:55:39;6.15;;;5.00;;
29120;SDS011;16191;49.548;8.658;2022-07-23T01:58:06;6.85;;;4.60;;
29120;SDS011;16191;49.548;8.658;2022-07-23T02:00:32;7.88;;;4.30;;
29120;SDS011;16191;49.548;8.658;2022-07-23T02:02:59;7.28;;;4.63;;
29120;SDS011;16191;49.548;8.658;2022-07-23T02:05:27;13.20;;;4.88;;
29120;SDS011;16191;49.548;8.658;2022-07-23T02:07:55;8.80;;;4.65;;
29120;SDS011;16191;49.548;8.658;2022-07-23T02:10:21;8.77;;;4.22;;
29120;SDS011;16191;49.548;8.658;2022-07-23T02:12:48;8.30;;;4.68;;
29120;SDS011;16191;49.548;8.658;2022-07-23T02:15:15;5.95;;;4.28;;
29120;SDS011;16191;49.548;8.658;2022-07-23T02:17:42;5.90;;;4.75;;
29120;SDS011;16191;49.548;8.658;2022-07-23T02:20:09;15.18;;;4.70;;
29120;SDS011;16191;49.548;8.658;2022-07-23T02:22:36;6.70;;;4.70;;
29120;SDS011;16191;49.548;8.658;2022-07-23T02:25:04;6.05;;;4.40;;
29120;SDS011;16191;49.548;8.658;2022-07-23T02:27:32;6.80;;;4.65;;
29120;SDS011;16191;49.548;8.658;2022-07-23T02:29:58;9.52;;;4.97;;
29120;SDS011;16191;49.548;8.658;2022-07-23T02:32:25;6.05;;;4.30;;
29120;SDS011;16191;49.548;8.658;2022-07-23T02:34:52;7.72;;;4.53;;
29120;SDS011;16191;49.548;8.658;2022-07-23T02:37:20;6.63;;;4.55;;
29120;SDS011;16191;49.548;8.658;2022-07-23T02:39:47;6.10;;;4.55;;
29120;SDS011;16191;49.548;8.658;2022-07-23T02:42:17;5.97;;;4.60;;
29120;SDS011;16191;49.548;8.658;2022-07-23T02:44:44;9.05;;;4.78;;
29120;SDS011;16191;49.548;8.658;2022-07-23T02:47:10;9.55;;;4.43;;
29120;SDS011;16191;49.548;8.658;2022-07-23T02:49:37;5.80;;;4.53;;
29120;SDS011;16191;49.548;8.658;2022-07-23T02:52:05;9.63;;;4.57;;
29120;SDS011;16191;49.548;8.658;2022-07-23T02:54:32;4.95;;;4.05;;
29120;SDS011;16191;49.548;8.658;2022-07-23T02:56:58;7.75;;;5.25;;
29120;SDS011;16191;49.548;8.658;2022-07-23T02:59:25;6.65;;;4.97;;
29120;SDS011;16191;49.548;8.658;2022-07-23T03:01:52;7.93;;;4.68;;
29120;SDS011;16191;49.548;8.658;2022-07-23T03:04:18;5.22;;;4.20;;
29120;SDS011;16191;49.548;8.658;2022-07-23T03:06:45;6.38;;;4.50;;
29120;SDS011;16191;49.548;8.658;2022-07-23T03:09:11;12.48;;;4.60;;
29120;SDS011;16191;49.548;8.658;2022-07-23T03:11:38;6.63;;;4.97;;
29120;SDS011;16191;49.548;8.658;2022-07-23T03:14:05;11.95;;;4.75;;
29120;SDS011;16191;49.548;8.658;2022-07-23T03:16:34;9.35;;;4.70;;
29120;SDS011;16191;49.548;8.658;2022-07-23T03:19:01;8.57;;;4.63;;
29120;SDS011;16191;49.548;8.658;2022-07-23T03:21:31;12.05;;;4.93;;
29120;SDS011;16191;49.548;8.658;2022-07-23T03:23:58;6.28;;;4.38;;
29120;SDS011;16191;49.548;8.658;2022-07-23T03:26:24;7.63;;;4.53;;
29120;SDS011;16191;49.548;8.658;2022-07-23T03:28:51;5.78;;;4.63;;
29120;SDS011;16191;49.548;8.658;2022-07-23T03:31:18;10.10;;;4.93;;
29120;SDS011;16191;49.548;8.658;2022-07-23T03:33:46;12.52;;;5.13;;
29120;SDS011;16191;49.548;8.658;2022-07-23T03:36:13;7.60;;;4.50;;
29120;SDS011;16191;49.548;8.658;2022-07-23T03:38:43;12.68;;;4.93;;
29120;SDS011;16191;49.548;8.658;2022-07-23T03:41:10;6.05;;;4.72;;
29120;SDS011;16191;49.548;8.658;2022-07-23T03:43:36;6.70;;;4.72;;
29120;SDS011;16191;49.548;8.658;2022-07-23T03:46:03;13.40;;;4.90;;
29120;SDS011;16191;49.548;8.658;2022-07-23T03:48:30;5.75;;;4.90;;
29120;SDS011;16191;49.548;8.658;2022-07-23T03:50:57;11.60;;;5.57;;
29120;SDS011;16191;49.548;8.658;2022-07-23T03:53:24;7.45;;;5.07;;
29120;SDS011;16191;49.548;8.658;2022-07-23T03:55:51;8.80;;;5.20;;
29120;SDS011;16191;49.548;8.658;2022-07-23T03:58:17;7.68;;;4.85;;
29120;SDS011;16191;49.548;8.658;2022-07-23T04:00:44;7.72;;;5.13;;
29120;SDS011;16191;49.548;8.658;2022-07-23T04:03:10;7.13;;;4.70;;
29120;SDS011;16191;49.548;8.658;2022-07-23T04:05:37;9.93;;;5.13;;
29120;SDS011;16191;49.548;8.658;2022-07-23T04:08:05;8.10;;;5.28;;
29120;SDS011;16191;49.548;8.658;2022-07-23T04:10:34;8.35;;;5.28;;
29120;SDS011;16191;49.548;8.658;2022-07-23T04:13:02;8.40;;;4.85;;
29120;SDS011;16191;49.548;8.658;2022-07-23T04:15:29;9.52;;;5.50;;
29120;SDS011;16191;49.548;8.658;2022-07-23T04:17:56;12.65;;;5.60;;
29120;SDS011;16191;49.548;8.658;2022-07-23T04:20:29;6.38;;;4.90;;
29120;SDS011;16191;49.548;8.658;2022-07-23T04:22:59;8.63;;;5.50;;
29120;SDS011;16191;49.548;8.658;2022-07-23T04:25:27;8.02;;;4.78;;
29120;SDS011;16191;49.548;8.658;2022-07-23T04:27:53;7.30;;;4.43;;
29120;SDS011;16191;49.548;8.658;2022-07-23T04:30:20;7.25;;;5.13;;
29120;SDS011;16191;49.548;8.658;2022-07-23T04:32:46;7.45;;;5.00;;
29120;SDS011;16191;49.548;8.658;2022-07-23T04:35:20;6.45;;;5.30;;
29120;SDS011;16191;49.548;8.658;2022-07-23T04:37:49;9.65;;;5.03;;
29120;SDS011;16191;49.548;8.658;2022-07-23T04:40:17;8.93;;;5.28;;
29120;SDS011;16191;49.548;8.658;2022-07-23T04:42:44;11.25;;;6.00;;
29120;SDS011;16191;49.548;8.658;2022-07-23T04:45:10;10.98;;;4.80;;
29120;SDS011;16191;49.548;8.658;2022-07-23T04:47:40;7.80;;;5.05;;
29120;SDS011;16191;49.548;8.658;2022-07-23T04:50:06;8.65;;;5.22;;
29120;SDS011;16191;49.548;8.658;2022-07-23T04:52:35;7.00;;;5.32;;
29120;SDS011;16191;49.548;8.658;2022-07-23T04:55:02;7.20;;;5.55;;
29120;SDS011;16191;49.548;8.658;2022-07-23T04:57:29;7.65;;;5.60;;
29120;SDS011;16191;49.548;8.658;2022-07-23T04:59:56;10.63;;;5.55;;
29120;SDS011;16191;49.548;8.658;2022-07-23T05:02:23;10.48;;;5.70;;
29120;SDS011;16191;49.548;8.658;2022-07-23T05:04:50;8.77;;;5.90;;
29120;SDS011;16191;49.548;8.658;2022-07-23T05:07:16;8.80;;;6.20;;
29120;SDS011;16191;49.548;8.658;2022-07-23T05:09:43;9.95;;;6.18;;
29120;SDS011;16191;49.548;8.658;2022-07-23T05:12:09;11.68;;;6.68;;
29120;SDS011;16191;49.548;8.658;2022-07-23T05:14:36;9.40;;;7.05;;
29120;SDS011;16191;49.548;8.658;2022-07-23T05:17:03;10.00;;;7.05;;
29120;SDS011;16191;49.548;8.658;2022-07-23T05:19:30;13.13;;;7.82;;
29120;SDS011;16191;49.548;8.658;2022-07-23T05:21:57;10.15;;;6.75;;
29120;SDS011;16191;49.548;8.658;2022-07-23T05:24:24;10.55;;;6.97;;
29120;SDS011;16191;49.548;8.658;2022-07-23T05:26:51;13.57;;;7.45;;
29120;SDS011;16191;49.548;8.658;2022-07-23T05:29:18;12.25;;;6.95;;
29120;SDS011;16191;49.548;8.658;2022-07-23T05:31:45;12.18;;;6.82;;
29120;SDS011;16191;49.548;8.658;2022-07-23T05:34:12;12.98;;;7.82;;
29120;SDS011;16191;49.548;8.658;2022-07-23T05:36:43;10.40;;;7.55;;
29120;SDS011;16191;49.548;8.658;2022-07-23T05:39:10;10.77;;;7.68;;
29120;SDS011;16191;49.548;8.658;2022-07-23T05:41:37;12.57;;;8.18;;
29120;SDS011;16191;49.548;8.658;2022-07-23T05:44:03;12.50;;;7.93;;
29120;SDS011;16191;49.548;8.658;2022-07-23T05:46:31;11.73;;;7.97;;
29120;SDS011;16191;49.548;8.658;2022-07-23T05:49:03;10.68;;;8.02;;
29120;SDS011;16191;49.548;8.658;2022-07-23T05:51:55;11.40;;;7.60;;
29120;SDS011;16191;49.548;8.658;2022-07-23T05:54:40;9.15;;;7.68;;
29120;SDS011;16191;49.548;8.658;2022-07-23T05:57:06;9.93;;;7.47;;
29120;SDS011;16191;49.548;8.658;2022-07-23T05:59:33;9.50;;;8.50;;
29120;SDS011;16191;49.548;8.658;2022-07-23T06:01:59;12.52;;;8.77;;
29120;SDS011;16191;49.548;8.658;2022-07-23T06:04:26;17.00;;;7.68;;
29120;SDS011;16191;49.548;8.658;2022-07-23T06:07:11;17.17;;;8.50;;
29120;SDS011;16191;49.548;8.658;2022-07-23T06:09:38;14.10;;;7.55;;
29120;SDS011;16191;49.548;8.658;2022-07-23T06:12:04;10.70;;;8.02;;
29120;SDS011;16191;49.548;8.658;2022-07-23T06:14:31;11.25;;;7.72;;
29120;SDS011;16191;49.548;8.658;2022-07-23T06:16:58;7.82;;;7.03;;
29120;SDS011;16191;49.548;8.658;2022-07-23T06:19:26;11.48;;;8.35;;
29120;SDS011;16191;49.548;8.658;2022-07-23T06:21:52;11.52;;;7.80;;
29120;SDS011;16191;49.548;8.658;2022-07-23T06:24:19;9.40;;;7.53;;
29120;SDS011;16191;49.548;8.658;2022-07-23T06:26:47;13.35;;;7.65;;
29120;SDS011;16191;49.548;8.658;2022-07-23T06:29:14;13.45;;;8.35;;
29120;SDS011;16191;49.548;8.658;2022-07-23T06:31:41;11.43;;;7.50;;
29120;SDS011;16191;49.548;8.658;2022-07-23T06:34:08;11.85;;;7.45;;
29120;SDS011;16191;49.548;8.658;2022-07-23T06:36:35;11.95;;;8.18;;
29120;SDS011;16191;49.548;8.658;2022-07-23T06:39:01;11.68;;;8.15;;
29120;SDS011;16191;49.548;8.658;2022-07-23T06:41:29;10.05;;;8.10;;
29120;SDS011;16191;49.548;8.658;2022-07-23T06:43:55;9.32;;;7.78;;
29120;SDS011;16191;49.548;8.658;2022-07-23T06:46:22;15.55;;;8.55;;
29120;SDS011;16191;49.548;8.658;2022-07-23T06:48:49;13.45;;;8.65;;
29120;SDS011;16191;49.548;8.658;2022-07-23T06:51:16;14.63;;;9.38;;
29120;SDS011;16191;49.548;8.658;2022-07-23T06:53:45;17.35;;;9.23;;
29120;SDS011;16191;49.548;8.658;2022-07-23T06:56:12;13.45;;;9.18;;
29120;SDS011;16191;49.548;8.658;2022-07-23T06:58:39;12.85;;;8.88;;
29120;SDS011;16191;49.548;8.658;2022-07-23T07:01:08;17.07;;;9.13;;
29120;SDS011;16191;49.548;8.658;2022-07-23T07:03:35;13.52;;;8.77;;
29120;SDS011;16191;49.548;8.658;2022-07-23T07:06:01;12.63;;;8.95;;
29120;SDS011;16191;49.548;8.658;2022-07-23T07:08:29;9.45;;;8.40;;
29120;SDS011;16191;49.548;8.658;2022-07-23T07:10:55;13.55;;;8.63;;
29120;SDS011;16191;49.548;8.658;2022-07-23T07:13:22;11.70;;;9.65;;
29120;SDS011;16191;49.548;8.658;2022-07-23T07:15:48;15.65;;;9.05;;
29120;SDS011;16191;49.548;8.658;2022-07-23T07:18:15;14.50;;;7.57;;
29120;SDS011;16191;49.548;8.658;2022-07-23T07:20:42;16.02;;;8.90;;
29120;SDS011;16191;49.548;8.658;2022-07-23T07:23:08;11.50;;;8.77;;
29120;SDS011;16191;49.548;8.658;2022-07-23T07:25:35;10.48;;;8.68;;
29120;SDS011;16191;49.548;8.658;2022-07-23T07:28:02;15.60;;;9.07;;
29120;SDS011;16191;49.548;8.658;2022-07-23T07:30:29;13.30;;;10.02;;
29120;SDS011;16191;49.548;8.658;2022-07-23T07:32:59;14.88;;;9.32;;
29120;SDS011;16191;49.548;8.658;2022-07-23T07:35:26;12.07;;;9.23;;
29120;SDS011;16191;49.548;8.658;2022-07-23T07:37:53;15.57;;;8.95;;
29120;SDS011;16191;49.548;8.658;2022-07-23T07:40:20;11.35;;;8.77;;
29120;SDS011;16191;49.548;8.658;2022-07-23T07:42:51;10.98;;;8.85;;
29120;SDS011;16191;49.548;8.658;2022-07-23T07:45:20;19.42;;;8.73;;
29120;SDS011;16191;49.548;8.658;2022-07-23T07:47:47;19.90;;;9.15;;
29120;SDS011;16191;49.548;8.658;2022-07-23T07:50:14;12.65;;;8.93;;
29120;SDS011;16191;49.548;8.658;2022-07-23T07:52:41;11.02;;;7.75;;
29120;SDS011;16191;49.548;8.658;2022-07-23T07:55:09;10.43;;;7.97;;
29120;SDS011;16191;49.548;8.658;2022-07-23T07:57:36;11.30;;;7.90;;
29120;SDS011;16191;49.548;8.658;2022-07-23T08:00:04;10.00;;;7.60;;
29120;SDS011;16191;49.548;8.658;2022-07-23T08:02:42;10.88;;;7.47;;
29120;SDS011;16191;49.548;8.658;2022-07-23T08:05:10;10.00;;;7.10;;
29120;SDS011;16191;49.548;8.658;2022-07-23T08:07:38;11.18;;;7.07;;
29120;SDS011;16191;49.548;8.658;2022-07-23T08:10:06;10.98;;;7.18;;
29120;SDS011;16191;49.548;8.658;2022-07-23T08:12:38;8.75;;;6.38;;
29120;SDS011;16191;49.548;8.658;2022-07-23T08:15:12;10.50;;;6.60;;
29120;SDS011;16191;49.548;8.658;2022-07-23T08:17:41;11.25;;;6.68;;
29120;SDS011;16191;49.548;8.658;2022-07-23T08:20:08;9.50;;;5.53;;
29120;SDS011;16191;49.548;8.658;2022-07-23T08:25:24;8.45;;;6.13;;
29120;SDS011;16191;49.548;8.658;2022-07-23T08:27:59;7.20;;;6.03;;
29120;SDS011;16191;49.548;8.658;2022-07-23T08:30:26;8.98;;;6.32;;
29120;SDS011;16191;49.548;8.658;2022-07-23T08:32:55;7.60;;;5.50;;
29120;SDS011;16191;49.548;8.658;2022-07-23T08:35:32;10.10;;;6.28;;
29120;SDS011;16191;49.548;8.658;2022-07-23T08:38:02;9.77;;;5.90;;
29120;SDS011;16191;49.548;8.658;2022-07-23T08:40:31;8.02;;;5.60;;
29120;SDS011;16191;49.548;8.658;2022-07-23T08:42:59;7.75;;;5.20;;
29120;SDS011;16191;49.548;8.658;2022-07-23T08:45:27;7.35;;;5.35;;
29120;SDS011;16191;49.548;8.658;2022-07-23T08:47:54;7.63;;;5.80;;
29120;SDS011;16191;49.548;8.658;2022-07-23T08:50:29;8.30;;;5.20;;
29120;SDS011;16191;49.548;8.658;2022-07-23T08:52:57;6.15;;;5.35;;
29120;SDS011;16191;49.548;8.658;2022-07-23T08:55:28;5.63;;;4.57;;
29120;SDS011;16191;49.548;8.658;2022-07-23T08:57:57;6.75;;;5.18;;
29120;SDS011;16191;49.548;8.658;2022-07-23T09:00:24;6.18;;;4.32;;
29120;SDS011;16191;49.548;8.658;2022-07-23T09:02:50;6.93;;;5.70;;
29120;SDS011;16191;49.548;8.658;2022-07-23T09:05:18;9.00;;;5.97;;
29120;SDS011;16191;49.548;8.658;2022-07-23T09:10:46;9.82;;;4.75;;
29120;SDS011;16191;49.548;8.658;2022-07-23T09:18:51;5.30;;;4.35;;
29120;SDS011;16191;49.548;8.658;2022-07-23T09:21:27;6.93;;;5.03;;
29120;SDS011;16191;49.548;8.658;2022-07-23T09:24:00;5.30;;;4.10;;
29120;SDS011;16191;49.548;8.658;2022-07-23T09:29:17;6.82;;;4.38;;
29120;SDS011;16191;49.548;8.658;2022-07-23T09:31:52;9.35;;;4.97;;
29120;SDS011;16191;49.548;8.658;2022-07-23T09:34:25;9.52;;;4.22;;
29120;SDS011;16191;49.548;8.658;2022-07-23T09:36:54;5.00;;;4.18;;
29120;SDS011;16191;49.548;8.658;2022-07-23T09:39:31;8.70;;;4.75;;
29120;SDS011;16191;49.548;8.658;2022-07-23T09:44:49;4.90;;;4.10;;
29120;SDS011;16191;49.548;8.658;2022-07-23T09:47:18;6.07;;;3.90;;
29120;SDS011;16191;49.548;8.658;2022-07-23T09:50:01;5.13;;;4.20;;
29120;SDS011;16191;49.548;8.658;2022-07-23T09:52:36;4.22;;;3.67;;
29120;SDS011;16191;49.548;8.658;2022-07-23T09:55:10;4.65;;;3.88;;
29120;SDS011;16191;49.548;8.658;2022-07-23T09:57:36;6.47;;;4.07;;
29120;SDS011;16191;49.548;8.658;2022-07-23T10:00:06;8.07;;;4.60;;
29120;SDS011;16191;49.548;8.658;2022-07-23T10:02:36;5.82;;;4.00;;
29120;SDS011;16191;49.548;8.658;2022-07-23T10:05:22;6.10;;;3.90;;
29120;SDS011;16191;49.548;8.658;2022-07-23T10:08:09;9.48;;;5.22;;
29120;SDS011;16191;49.548;8.658;2022-07-23T10:10:57;6.45;;;4.88;;
29120;SDS011;16191;49.548;8.658;2022-07-23T10:13:45;7.07;;;4.72;;
29120;SDS011;16191;49.548;8.658;2022-07-23T10:16:51;5.20;;;4.13;;
29120;SDS011;16191;49.548;8.658;2022-07-23T10:19:18;5.82;;;4.35;;
29120;SDS011;16191;49.548;8.658;2022-07-23T10:21:46;6.25;;;4.25;;
29120;SDS011;16191;49.548;8.658;2022-07-23T10:24:18;7.70;;;4.10;;
29120;SDS011;16191;49.548;8.658;2022-07-23T10:29:48;7.57;;;5.38;;
29120;SDS011;16191;49.548;8.658;2022-07-23T10:35:36;5.57;;;4.28;;
29120;SDS011;16191;49.548;8.658;2022-07-23T10:38:15;5.90;;;4.40;;
29120;SDS011;16191;49.548;8.658;2022-07-23T10:40:57;8.57;;;4.43;;
29120;SDS011;16191;49.548;8.658;2022-07-23T10:43:25;6.57;;;4.25;;
29120;SDS011;16191;49.548;8.658;2022-07-23T10:45:53;6.13;;;3.85;;
29120;SDS011;16191;49.548;8.658;2022-07-23T10:51:07;7.03;;;3.90;;
29120;SDS011;16191;49.548;8.658;2022-07-23T10:59:15;9.52;;;4.53;;
29120;SDS011;16191;49.548;8.658;2022-07-23T11:01:42;6.25;;;4.40;;
29120;SDS011;16191;49.548;8.658;2022-07-23T11:04:09;6.10;;;4.80;;
29120;SDS011;16191;49.548;8.658;2022-07-23T11:07:06;6.75;;;4.90;;
29120;SDS011;16191;49.548;8.658;2022-07-23T11:09:30;8.77;;;4.32;;
29120;SDS011;16191;49.548;8.658;2022-07-23T11:14:59;4.28;;;3.40;;
29120;SDS011;16191;49.548;8.658;2022-07-23T11:17:26;6.68;;;4.70;;
29120;SDS011;16191;49.548;8.658;2022-07-23T11:22:36;5.88;;;3.88;;
29120;SDS011;16191;49.548;8.658;2022-07-23T11:25:04;9.52;;;4.10;;
29120;SDS011;16191;49.548;8.658;2022-07-23T11:30:06;5.90;;;4.38;;
29120;SDS011;16191;49.548;8.658;2022-07-23T11:32:35;8.07;;;4.00;;
29120;SDS011;16191;49.548;8.658;2022-07-23T11:35:26;6.65;;;4.10;;
29120;SDS011;16191;49.548;8.658;2022-07-23T11:37:54;14.07;;;4.25;;
29120;SDS011;16191;49.548;8.658;2022-07-23T11:40:30;5.40;;;4.47;;
29120;SDS011;16191;49.548;8.658;2022-07-23T11:43:01;7.35;;;3.85;;
29120;SDS011;16191;49.548;8.658;2022-07-23T11:45:32;8.15;;;4.50;;
29120;SDS011;16191;49.548;8.658;2022-07-23T11:48:04;5.18;;;3.75;;
29120;SDS011;16191;49.548;8.658;2022-07-23T11:50:32;4.30;;;3.90;;
29120;SDS011;16191;49.548;8.658;2022-07-23T11:52:59;6.30;;;4.07;;
29120;SDS011;16191;49.548;8.658;2022-07-23T11:55:27;6.75;;;3.88;;
29120;SDS011;16191;49.548;8.658;2022-07-23T11:57:55;5.57;;;3.90;;
29120;SDS011;16191;49.548;8.658;2022-07-23T12:00:26;7.03;;;4.13;;
29120;SDS011;16191;49.548;8.658;2022-07-23T12:02:55;4.72;;;3.40;;
29120;SDS011;16191;49.548;8.658;2022-07-23T12:05:29;5.03;;;3.85;;
29120;SDS011;16191;49.548;8.658;2022-07-23T12:07:57;5.13;;;3.92;;
29120;SDS011;16191;49.548;8.658;2022-07-23T12:10:29;6.70;;;3.80;;
29120;SDS011;16191;49.548;8.658;2022-07-23T12:13:01;5.25;;;3.80;;
29120;SDS011;16191;49.548;8.658;2022-07-23T12:17:59;6.13;;;4.05;;
29120;SDS011;16191;49.548;8.658;2022-07-23T12:20:29;9.52;;;4.18;;
29120;SDS011;16191;49.548;8.658;2022-07-23T12:23:05;7.30;;;4.05;;
29120;SDS011;16191;49.548;8.658;2022-07-23T12:25:34;6.53;;;4.40;;
29120;SDS011;16191;49.548;8.658;2022-07-23T12:28:04;7.82;;;3.80;;
29120;SDS011;16191;49.548;8.658;2022-07-23T12:30:37;5.43;;;3.80;;
29120;SDS011;16191;49.548;8.658;2022-07-23T12:33:08;5.72;;;4.10;;
29120;SDS011;16191;49.548;8.658;2022-07-23T12:35:41;8.23;;;4.15;;
29120;SDS011;16191;49.548;8.658;2022-07-23T12:38:11;5.45;;;3.72;;
29120;SDS011;16191;49.548;8.658;2022-07-23T12:43:27;5.05;;;3.95;;
29120;SDS011;16191;49.548;8.658;2022-07-23T12:45:57;6.28;;;4.30;;
29120;SDS011;16191;49.548;8.658;2022-07-23T12:51:29;5.35;;;3.97;;
29120;SDS011;16191;49.548;8.658;2022-07-23T12:53:59;7.75;;;4.55;;
29120;SDS011;16191;49.548;8.658;2022-07-23T12:56:32;7.90;;;4.55;;
29120;SDS011;16191;49.548;8.658;2022-07-23T13:01:33;8.05;;;3.95;;
29120;SDS011;16191;49.548;8.658;2022-07-23T13:06:42;6.68;;;4.03;;
29120;SDS011;16191;49.548;8.658;2022-07-23T13:09:12;6.85;;;3.80;;
29120;SDS011;16191;49.548;8.658;2022-07-23T13:11:41;7.13;;;4.05;;
29120;SDS011;16191;49.548;8.658;2022-07-23T13:14:09;5.28;;;3.92;;
29120;SDS011;16191;49.548;8.658;2022-07-23T13:16:37;6.63;;;3.80;;
29120;SDS011;16191;49.548;8.658;2022-07-23T13:19:05;9.07;;;4.20;;
29120;SDS011;16191;49.548;8.658;2022-07-23T13:21:38;4.35;;;3.80;;
29120;SDS011;16191;49.548;8.658;2022-07-23T13:24:05;7.13;;;4.40;;
29120;SDS011;16191;49.548;8.658;2022-07-23T13:26:34;5.43;;;3.83;;
29120;SDS011;16191;49.548;8.658;2022-07-23T13:29:01;7.40;;;4.30;;
29120;SDS011;16191;49.548;8.658;2022-07-23T13:31:28;7.72;;;3.80;;
29120;SDS011;16191;49.548;8.658;2022-07-23T13:33:54;4.35;;;3.88;;
29120;SDS011;16191;49.548;8.658;2022-07-23T13:36:21;7.72;;;4.10;;
29120;SDS011;16191;49.548;8.658;2022-07-23T13:38:47;6.00;;;4.00;;
29120;SDS011;16191;49.548;8.658;2022-07-23T13:41:16;8.45;;;4.00;;
29120;SDS011;16191;49.548;8.658;2022-07-23T13:43:45;7.78;;;4.03;;
29120;SDS011;16191;49.548;8.658;2022-07-23T13:46:13;6.82;;;3.80;;
29120;SDS011;16191;49.548;8.658;2022-07-23T13:48:39;8.65;;;7.85;;
29120;SDS011;16191;49.548;8.658;2022-07-23T13:51:07;11.27;;;4.88;;
29120;SDS011;16191;49.548;8.658;2022-07-23T13:56:03;6.88;;;4.03;;
29120;SDS011;16191;49.548;8.658;2022-07-23T13:58:29;4.47;;;3.92;;
29120;SDS011;16191;49.548;8.658;2022-07-23T14:00:56;6.78;;;5.03;;
29120;SDS011;16191;49.548;8.658;2022-07-23T14:03:23;6.75;;;4.57;;
29120;SDS011;16191;49.548;8.658;2022-07-23T14:05:51;5.60;;;4.05;;
29120;SDS011;16191;49.548;8.658;2022-07-23T14:08:21;6.80;;;4.57;;
29120;SDS011;16191;49.548;8.658;2022-07-23T14:10:48;6.47;;;3.90;;
29120;SDS011;16191;49.548;8.658;2022-07-23T14:13:14;5.68;;;3.88;;
29120;SDS011;16191;49.548;8.658;2022-07-23T14:15:41;5.13;;;4.05;;
29120;SDS011;16191;49.548;8.658;2022-07-23T14:18:08;5.43;;;3.83;;
29120;SDS011;16191;49.548;8.658;2022-07-23T14:20:35;7.93;;;3.70;;
29120;SDS011;16191;49.548;8.658;2022-07-23T14:23:02;5.20;;;4.00;;
29120;SDS011;16191;49.548;8.658;2022-07-23T14:25:31;7.30;;;4.07;;
29120;SDS011;16191;49.548;8.658;2022-07-23T14:27:59;9.50;;;4.15;;
29120;SDS011;16191;49.548;8.658;2022-07-23T14:30:25;4.80;;;3.42;;
29120;SDS011;16191;49.548;8.658;2022-07-23T14:32:59;5.65;;;3.97;;
29120;SDS011;16191;49.548;8.658;2022-07-23T14:35:26;7.82;;;4.20;;
29120;SDS011;16191;49.548;8.658;2022-07-23T14:37:53;7.68;;;4.35;;
29120;SDS011;16191;49.548;8.658;2022-07-23T14:40:20;7.68;;;4.07;;
29120;SDS011;16191;49.548;8.658;2022-07-23T14:42:48;5.57;;;3.40;;
29120;SDS011;16191;49.548;8.658;2022-07-23T14:45:15;5.82;;;3.92;;
29120;SDS011;16191;49.548;8.658;2022-07-23T14:47:44;4.75;;;3.67;;
29120;SDS011;16191;49.548;8.658;2022-07-23T14:50:13;5.50;;;3.67;;
29120;SDS011;16191;49.548;8.658;2022-07-23T14:52:40;5.57;;;3.38;;
29120;SDS011;16191;49.548;8.658;2022-07-23T14:55:06;6.68;;;3.75;;
29120;SDS011;16191;49.548;8.658;2022-07-23T14:57:33;4.30;;;2.90;;
29120;SDS011;16191;49.548;8.658;2022-07-23T15:00:00;5.60;;;3.00;;
29120;SDS011;16191;49.548;8.658;2022-07-23T15:02:26;6.55;;;3.30;;
29120;SDS011;16191;49.548;8.658;2022-07-23T15:04:53;4.18;;;3.33;;
29120;SDS011;16191;49.548;8.658;2022-07-23T15:07:20;6.00;;;3.30;;
29120;SDS011;16191;49.548;8.658;2022-07-23T15:09:46;7.18;;;4.00;;
29120;SDS011;16191;49.548;8.658;2022-07-23T15:12:13;6.70;;;4.80;;
29120;SDS011;16191;49.548;8.658;2022-07-23T15:14:40;6.22;;;3.70;;
29120;SDS011;16191;49.548;8.658;2022-07-23T15:17:06;5.53;;;3.40;;
29120;SDS011;16191;49.548;8.658;2022-07-23T15:19:33;5.82;;;4.22;;
29120;SDS011;16191;49.548;8.658;2022-07-23T15:22:00;7.28;;;5.40;;
29120;SDS011;16191;49.548;8.658;2022-07-23T15:24:32;7.40;;;3.92;;
29120;SDS011;16191;49.548;8.658;2022-07-23T15:26:59;7.95;;;3.92;;
29120;SDS011;16191;49.548;8.658;2022-07-23T15:29:25;6.97;;;3.53;;
29120;SDS011;16191;49.548;8.658;2022-07-23T15:31:52;8.73;;;3.72;;
29120;SDS011;16191;49.548;8.658;2022-07-23T15:34:24;7.90;;;3.45;;
29120;SDS011;16191;49.548;8.658;2022-07-23T15:36:55;4.57;;;3.50;;
29120;SDS011;16191;49.548;8.658;2022-07-23T15:39:23;5.90;;;3.63;;
29120;SDS011;16191;49.548;8.658;2022-07-23T15:41:49;16.90;;;8.95;;
29120;SDS011;16191;49.548;8.658;2022-07-23T15:44:16;5.75;;;4.00;;
29120;SDS011;16191;49.548;8.658;2022-07-23T15:46:55;4.40;;;3.30;;
29120;SDS011;16191;49.548;8.658;2022-07-23T15:49:24;9.23;;;5.60;;